Time;durP1;ratioP1;P1;durP2;ratioP2;P2;SDS_P1;SDS_P2;PMS_P1;PMS_P2;Temp;Humidity;BMP_temperature;BMP_pressure;BME280_temperature;BME280_humidity;BME280_pressure;Samples;Min_cycle;Max_cycle;Signal;HPM_P1;HPM_P2
2022/07/04 00:01:46;;;;;;;10.82;6.82;;;;;;;;;;5028885;28;20182;-74
2022/07/04 00:04:11;;;;;;;8.20;5.85;;;;;;;;;;5030316;28;20229;-74
2022/07/04 00:06:36;;;;;;;6.03;5.30;;;;;;;;;;5028460;28;20171;-74
2022/07/04 00:09:02;;;;;;;8.60;6.60;;;;;;;;;;5030310;28;20198;-74
2022/07/04 00:11:27;;;;;;;10.32;6.03;;;;;;;;;;5032888;28;20183;-74
2022/07/04 00:13:52;;;;;;;9.68;6.05;;;;;;;;;;5032128;28;20171;-74
2022/07/04 00:16:17;;;;;;;6.35;5.68;;;;;;;;;;5026811;28;20214;-74
2022/07/04 00:18:43;;;;;;;8.57;5.75;;;;;;;;;;5024114;28;20268;-74
2022/07/04 00:21:08;;;;;;;5.55;4.93;;;;;;;;;;5030937;28;20663;-74
2022/07/04 00:23:33;;;;;;;11.93;6.13;;;;;;;;;;5030368;28;20549;-74
2022/07/04 00:25:58;;;;;;;6.85;6.03;;;;;;;;;;5031659;28;20201;-74
2022/07/04 00:28:24;;;;;;;7.40;6.18;;;;;;;;;;5028827;28;20538;-74
2022/07/04 00:30:49;;;;;;;7.75;6.90;;;;;;;;;;5031368;28;20182;-74
2022/07/04 00:33:14;;;;;;;11.02;7.57;;;;;;;;;;5031358;28;20664;-74
2022/07/04 00:35:39;;;;;;;10.70;6.90;;;;;;;;;;5031151;28;20243;-74
2022/07/04 00:38:05;;;;;;;7.50;6.50;;;;;;;;;;5031814;28;20170;-74
2022/07/04 00:40:30;;;;;;;11.02;7.40;;;;;;;;;;5030569;28;20249;-74
2022/07/04 00:42:59;;;;;;;8.68;6.65;;;;;;;;;;5032506;28;20722;-74
2022/07/04 00:45:25;;;;;;;9.60;6.82;;;;;;;;;;5031551;28;20262;-74
2022/07/04 00:47:50;;;;;;;12.35;6.55;;;;;;;;;;5031355;28;20268;-74
2022/07/04 00:50:15;;;;;;;8.82;6.32;;;;;;;;;;5031905;28;20268;-74
2022/07/04 00:52:41;;;;;;;8.70;6.63;;;;;;;;;;5031227;28;20205;-74
2022/07/04 00:55:06;;;;;;;6.10;5.40;;;;;;;;;;5032484;28;20248;-74
2022/07/04 00:57:32;;;;;;;6.50;5.50;;;;;;;;;;5030693;28;20177;-74
2022/07/04 00:59:57;;;;;;;7.63;5.80;;;;;;;;;;5031378;28;20712;-74
2022/07/04 01:02:22;;;;;;;5.63;5.05;;;;;;;;;;5023862;28;20175;-74
2022/07/04 01:04:47;;;;;;;7.13;5.55;;;;;;;;;;5027767;28;20640;-74
2022/07/04 01:07:13;;;;;;;6.63;5.55;;;;;;;;;;5031885;28;20170;-74
2022/07/04 01:09:38;;;;;;;7.90;6.25;;;;;;;;;;5028022;28;20292;-74
2022/07/04 01:12:03;;;;;;;8.93;6.85;;;;;;;;;;5030453;28;20189;-75
2022/07/04 01:14:28;;;;;;;8.00;6.07;;;;;;;;;;5025644;28;20218;-74
2022/07/04 01:16:54;;;;;;;8.05;6.45;;;;;;;;;;5030465;28;20201;-73
2022/07/04 01:19:19;;;;;;;9.23;6.53;;;;;;;;;;5028974;28;20191;-73
2022/07/04 01:21:44;;;;;;;12.07;8.15;;;;;;;;;;5025659;28;20624;-74
2022/07/04 01:24:12;;;;;;;12.52;10.13;;;;;;;;;;5028545;28;20680;-73
2022/07/04 01:26:38;;;;;;;14.20;10.10;;;;;;;;;;5029864;28;20206;-74
2022/07/04 01:29:03;;;;;;;12.93;8.75;;;;;;;;;;5028180;28;20284;-73
2022/07/04 01:31:28;;;;;;;15.10;8.32;;;;;;;;;;5012341;28;20182;-74
2022/07/04 01:33:53;;;;;;;13.00;8.60;;;;;;;;;;5023392;28;20166;-73
2022/07/04 01:36:18;;;;;;;9.50;7.90;;;;;;;;;;5028676;28;20205;-73
2022/07/04 01:38:44;;;;;;;12.05;8.70;;;;;;;;;;5027268;28;20194;-73
2022/07/04 01:41:09;;;;;;;9.90;7.45;;;;;;;;;;5035103;28;20631;-73
2022/07/04 01:43:35;;;;;;;9.70;8.27;;;;;;;;;;5028968;28;20331;-73
2022/07/04 01:46:00;;;;;;;9.63;7.97;;;;;;;;;;5027165;28;20185;-76
2022/07/04 01:48:25;;;;;;;10.57;8.40;;;;;;;;;;5028218;28;20233;-73
2022/07/04 01:50:50;;;;;;;10.55;9.18;;;;;;;;;;5010607;28;20641;-74
2022/07/04 01:53:16;;;;;;;13.68;8.93;;;;;;;;;;5028512;28;20187;-74
2022/07/04 01:55:41;;;;;;;13.38;9.43;;;;;;;;;;5030741;28;20220;-74
2022/07/04 01:58:06;;;;;;;12.02;8.35;;;;;;;;;;5027490;28;20181;-74
2022/07/04 02:03:15;;;;;;;8.85;7.55;;;;;;;;;;5028592;28;20572;-74
2022/07/04 02:05:42;;;;;;;11.27;8.15;;;;;;;;;;5028938;28;20261;-74
2022/07/04 02:08:08;;;;;;;9.75;7.65;;;;;;;;;;5023823;28;20178;-74
2022/07/04 02:10:34;;;;;;;10.57;8.68;;;;;;;;;;5028059;28;20671;-74
2022/07/04 02:13:03;;;;;;;13.00;9.52;;;;;;;;;;5027024;28;20240;-74
2022/07/04 02:15:28;;;;;;;12.18;8.27;;;;;;;;;;5022281;28;20213;-74
2022/07/04 02:17:53;;;;;;;9.05;7.22;;;;;;;;;;5026853;28;20183;-74
2022/07/04 02:20:18;;;;;;;9.52;7.65;;;;;;;;;;5028979;28;20194;-74
2022/07/04 02:22:44;;;;;;;9.00;6.95;;;;;;;;;;5019628;28;20186;-74
2022/07/04 02:25:11;;;;;;;14.18;8.13;;;;;;;;;;5028142;28;20635;-74
2022/07/04 02:27:36;;;;;;;7.95;7.15;;;;;;;;;;5029905;28;20186;-74
2022/07/04 02:30:02;;;;;;;10.57;6.78;;;;;;;;;;5028195;28;20598;-74
2022/07/04 02:32:27;;;;;;;9.60;6.38;;;;;;;;;;5029997;28;20627;-74
2022/07/04 02:34:52;;;;;;;10.95;7.20;;;;;;;;;;5028555;28;20289;-74
2022/07/04 02:37:17;;;;;;;9.68;7.22;;;;;;;;;;5029475;28;20178;-74
2022/07/04 02:39:43;;;;;;;10.85;6.32;;;;;;;;;;5029220;28;20222;-74
2022/07/04 02:42:08;;;;;;;9.57;6.32;;;;;;;;;;5029813;28;20236;-74
2022/07/04 02:44:33;;;;;;;10.43;7.63;;;;;;;;;;5030292;28;20198;-74
2022/07/04 02:47:00;;;;;;;15.65;7.57;;;;;;;;;;5029878;28;20209;-74
2022/07/04 02:49:25;;;;;;;9.85;6.82;;;;;;;;;;5029077;28;20194;-74
2022/07/04 02:51:50;;;;;;;11.52;7.80;;;;;;;;;;5029914;28;20177;-75
2022/07/04 02:54:15;;;;;;;9.27;6.70;;;;;;;;;;5015770;28;20178;-75
2022/07/04 02:56:41;;;;;;;9.73;7.82;;;;;;;;;;5028777;28;20548;-75
2022/07/04 02:59:06;;;;;;;8.13;6.70;;;;;;;;;;5029047;28;20722;-75
2022/07/04 03:01:31;;;;;;;9.87;6.87;;;;;;;;;;5030617;28;20624;-74
2022/07/04 03:03:57;;;;;;;11.90;8.15;;;;;;;;;;5029484;28;20570;-73
2022/07/04 03:06:22;;;;;;;9.63;7.47;;;;;;;;;;5033745;28;20900;-74
2022/07/04 03:08:47;;;;;;;9.10;6.72;;;;;;;;;;5030432;28;20213;-74
2022/07/04 03:11:12;;;;;;;11.40;7.93;;;;;;;;;;5018854;28;20174;-74
2022/07/04 03:13:39;;;;;;;9.23;7.22;;;;;;;;;;5021177;28;20329;-74
2022/07/04 03:16:04;;;;;;;8.33;7.53;;;;;;;;;;5017225;28;20288;-74
2022/07/04 03:18:30;;;;;;;10.52;7.50;;;;;;;;;;5024637;28;20194;-74
2022/07/04 03:20:55;;;;;;;10.67;7.00;;;;;;;;;;5029926;28;20193;-74
2022/07/04 03:23:20;;;;;;;8.50;6.80;;;;;;;;;;5028921;28;20308;-74
2022/07/04 03:25:45;;;;;;;9.93;6.88;;;;;;;;;;5029158;28;20277;-74
2022/07/04 03:28:11;;;;;;;9.03;6.80;;;;;;;;;;5026454;28;20187;-74
2022/07/04 03:30:36;;;;;;;8.15;6.38;;;;;;;;;;5029933;28;20178;-74
2022/07/04 03:33:01;;;;;;;6.40;5.80;;;;;;;;;;5027840;28;20175;-74
2022/07/04 03:35:27;;;;;;;7.43;5.82;;;;;;;;;;5029500;28;20264;-74
2022/07/04 03:37:52;;;;;;;9.00;6.38;;;;;;;;;;5028679;28;20174;-74
2022/07/04 03:40:18;;;;;;;7.70;6.55;;;;;;;;;;5029993;28;20197;-74
2022/07/04 03:42:43;;;;;;;6.47;5.88;;;;;;;;;;5030986;28;20536;-74
2022/07/04 03:45:09;;;;;;;11.63;7.63;;;;;;;;;;5029297;28;20656;-74
2022/07/04 03:47:34;;;;;;;11.75;6.97;;;;;;;;;;5029342;28;20704;-74
2022/07/04 03:49:59;;;;;;;7.60;6.78;;;;;;;;;;5027795;28;20194;-74
2022/07/04 03:52:25;;;;;;;7.83;6.60;;;;;;;;;;5033255;28;20183;-74
2022/07/04 03:54:50;;;;;;;12.13;8.82;;;;;;;;;;5030615;28;20190;-74
2022/07/04 03:57:15;;;;;;;14.20;9.05;;;;;;;;;;5016101;28;20578;-75
2022/07/04 03:59:40;;;;;;;12.77;8.20;;;;;;;;;;5031558;28;20273;-74
2022/07/04 04:02:05;;;;;;;10.82;7.70;;;;;;;;;;5032979;28;20301;-74
2022/07/04 04:07:15;;;;;;;13.68;8.38;;;;;;;;;;5032609;28;20255;-74
2022/07/04 04:09:40;;;;;;;9.75;8.40;;;;;;;;;;5023435;28;20681;-74
2022/07/04 04:12:05;;;;;;;10.57;8.25;;;;;;;;;;5029878;28;20528;-74
2022/07/04 04:14:30;;;;;;;11.38;8.60;;;;;;;;;;5024161;28;20214;-74
2022/07/04 04:16:55;;;;;;;9.15;7.97;;;;;;;;;;5030266;28;20190;-74
2022/07/04 04:19:21;;;;;;;10.43;8.27;;;;;;;;;;5027072;28;20201;-74
2022/07/04 04:21:46;;;;;;;14.73;7.90;;;;;;;;;;5029207;28;20261;-74
2022/07/04 04:24:11;;;;;;;13.23;7.75;;;;;;;;;;5032732;28;20182;-74
2022/07/04 04:26:36;;;;;;;11.77;7.97;;;;;;;;;;5015496;28;20182;-74
2022/07/04 04:29:02;;;;;;;10.77;7.15;;;;;;;;;;5026756;28;20688;-75
2022/07/04 04:31:27;;;;;;;9.07;7.20;;;;;;;;;;5030175;28;20557;-74
2022/07/04 04:33:52;;;;;;;12.45;7.85;;;;;;;;;;5029943;28;20181;-74
2022/07/04 04:36:17;;;;;;;12.45;6.53;;;;;;;;;;5033344;28;20668;-74
2022/07/04 04:38:43;;;;;;;8.32;6.38;;;;;;;;;;5031416;28;20201;-74
2022/07/04 04:41:08;;;;;;;10.70;7.28;;;;;;;;;;5032600;28;20182;-74
2022/07/04 04:43:33;;;;;;;13.25;7.07;;;;;;;;;;5031682;28;20175;-74
2022/07/04 04:45:59;;;;;;;12.50;6.38;;;;;;;;;;5032286;28;20214;-74
2022/07/04 04:48:24;;;;;;;11.13;6.00;;;;;;;;;;5031076;28;20206;-74
2022/07/04 04:50:50;;;;;;;8.48;6.15;;;;;;;;;;5030573;28;20174;-74
2022/07/04 04:53:15;;;;;;;8.93;5.90;;;;;;;;;;5032674;28;20265;-74
2022/07/04 04:55:40;;;;;;;7.75;5.60;;;;;;;;;;5032292;28;20202;-74
2022/07/04 04:58:05;;;;;;;9.73;5.70;;;;;;;;;;5031506;28;20174;-74
2022/07/04 05:00:31;;;;;;;8.88;5.35;;;;;;;;;;5030698;28;20178;-74
2022/07/04 05:02:56;;;;;;;7.22;5.18;;;;;;;;;;5031746;28;20182;-74
2022/07/04 05:05:21;;;;;;;8.57;5.72;;;;;;;;;;5030627;28;20209;-74
2022/07/04 05:07:46;;;;;;;6.90;4.75;;;;;;;;;;5029073;28;20248;-74
2022/07/04 05:10:12;;;;;;;7.05;4.70;;;;;;;;;;5031486;28;20225;-74
2022/07/04 05:12:37;;;;;;;8.82;5.28;;;;;;;;;;5030605;28;20206;-74
2022/07/04 05:15:02;;;;;;;8.13;5.13;;;;;;;;;;5030686;28;20194;-74
2022/07/04 05:17:27;;;;;;;6.72;4.60;;;;;;;;;;5028150;28;20213;-74
2022/07/04 05:19:53;;;;;;;4.82;4.35;;;;;;;;;;5011457;28;20220;-74
2022/07/04 05:22:18;;;;;;;9.88;4.18;;;;;;;;;;5017992;28;20223;-74
2022/07/04 05:24:43;;;;;;;9.35;4.22;;;;;;;;;;5030364;28;20273;-74
2022/07/04 05:27:09;;;;;;;5.25;4.07;;;;;;;;;;5032578;28;20276;-74
2022/07/04 05:29:34;;;;;;;6.47;3.95;;;;;;;;;;5025532;28;20216;-74
2022/07/04 05:31:59;;;;;;;6.53;4.05;;;;;;;;;;5029370;28;20257;-75
2022/07/04 05:34:24;;;;;;;10.63;5.45;;;;;;;;;;5028477;28;20563;-74
2022/07/04 05:36:50;;;;;;;7.97;4.50;;;;;;;;;;5029783;28;20189;-75
2022/07/04 05:39:15;;;;;;;9.02;4.43;;;;;;;;;;5027201;28;20205;-75
2022/07/04 05:41:40;;;;;;;5.50;4.15;;;;;;;;;;5024653;28;20228;-75
2022/07/04 05:44:05;;;;;;;10.70;4.20;;;;;;;;;;5028051;28;20175;-75
2022/07/04 05:46:30;;;;;;;8.02;3.67;;;;;;;;;;5031465;28;20599;-75
2022/07/04 05:48:56;;;;;;;7.82;4.57;;;;;;;;;;5025952;28;20206;-72
2022/07/04 05:51:21;;;;;;;8.80;3.88;;;;;;;;;;5031364;28;20671;-72
2022/07/04 05:53:46;;;;;;;7.65;3.97;;;;;;;;;;5029877;28;20180;-72
2022/07/04 05:56:12;;;;;;;10.95;4.45;;;;;;;;;;5027685;28;20205;-75
2022/07/04 05:58:38;;;;;;;7.55;4.07;;;;;;;;;;5020597;28;20198;-74
2022/07/04 06:01:03;;;;;;;8.38;4.82;;;;;;;;;;5029866;28;20637;-74
2022/07/04 06:03:28;;;;;;;6.35;4.30;;;;;;;;;;5026040;28;20236;-74
2022/07/04 06:05:53;;;;;;;10.95;5.15;;;;;;;;;;5026773;28;20182;-74
2022/07/04 06:08:19;;;;;;;7.88;4.57;;;;;;;;;;5026310;28;20202;-74
2022/07/04 06:10:45;;;;;;;9.95;4.43;;;;;;;;;;5029442;28;20671;-73
2022/07/04 06:13:10;;;;;;;9.88;4.40;;;;;;;;;;5030277;28;20234;-75
2022/07/04 06:15:35;;;;;;;7.28;4.05;;;;;;;;;;5029016;28;20522;-73
2022/07/04 06:18:02;;;;;;;8.07;4.22;;;;;;;;;;5025079;28;20170;-73
2022/07/04 06:20:27;;;;;;;6.55;4.13;;;;;;;;;;5024017;28;20197;-73
2022/07/04 06:22:52;;;;;;;8.85;3.90;;;;;;;;;;5013556;28;20179;-73
2022/07/04 06:25:18;;;;;;;9.02;4.32;;;;;;;;;;5014447;28;20190;-73
2022/07/04 06:27:44;;;;;;;8.57;4.45;;;;;;;;;;5012769;28;20183;-73
2022/07/04 06:30:10;;;;;;;8.55;4.40;;;;;;;;;;5027070;28;20772;-73
2022/07/04 06:32:45;;;;;;;7.78;3.97;;;;;;;;;;5030183;28;20183;-73
2022/07/04 06:37:54;;;;;;;7.75;4.03;;;;;;;;;;5028375;28;20709;-74
2022/07/04 06:40:19;;;;;;;6.95;3.83;;;;;;;;;;5029754;28;20289;-74
2022/07/04 06:42:45;;;;;;;10.00;3.53;;;;;;;;;;5012952;28;20556;-73
2022/07/04 06:45:10;;;;;;;10.27;3.80;;;;;;;;;;5031279;28;20549;-73
2022/07/04 06:47:35;;;;;;;10.93;4.03;;;;;;;;;;5029589;28;20411;-73
2022/07/04 06:50:00;;;;;;;6.38;3.58;;;;;;;;;;5029648;28;20686;-73
2022/07/04 06:52:25;;;;;;;9.13;3.33;;;;;;;;;;5030846;28;20197;-74
2022/07/04 06:54:51;;;;;;;6.38;3.28;;;;;;;;;;5030018;28;20538;-73
2022/07/04 06:57:16;;;;;;;5.60;3.43;;;;;;;;;;5029235;28;20262;-73
2022/07/04 06:59:41;;;;;;;6.93;3.00;;;;;;;;;;5029817;28;20947;-74
2022/07/04 07:02:06;;;;;;;5.90;3.30;;;;;;;;;;5025050;28;20463;-73
2022/07/04 07:04:31;;;;;;;8.95;3.40;;;;;;;;;;5015196;28;20534;-73
2022/07/04 07:06:56;;;;;;;8.18;3.25;;;;;;;;;;5016418;28;20581;-73
2022/07/04 07:09:22;;;;;;;6.00;2.90;;;;;;;;;;5009941;28;20213;-74
2022/07/04 07:11:47;;;;;;;7.00;2.30;;;;;;;;;;5026543;28;20175;-74
2022/07/04 07:14:12;;;;;;;4.90;2.10;;;;;;;;;;5022515;28;20235;-73
2022/07/04 07:16:37;;;;;;;8.20;2.63;;;;;;;;;;5025365;28;20916;-71
2022/07/04 07:19:02;;;;;;;6.15;2.35;;;;;;;;;;5032324;28;20456;-71
2022/07/04 07:21:28;;;;;;;6.17;3.00;;;;;;;;;;5027929;28;20181;-72
2022/07/04 07:23:53;;;;;;;6.22;2.65;;;;;;;;;;5029006;28;20828;-73
2022/07/04 07:26:18;;;;;;;7.28;2.65;;;;;;;;;;5020674;28;20171;-71
2022/07/04 07:28:44;;;;;;;4.03;2.20;;;;;;;;;;5028708;28;20680;-71
2022/07/04 07:31:09;;;;;;;7.18;2.75;;;;;;;;;;5029379;28;20652;-71
2022/07/04 07:33:35;;;;;;;5.82;2.58;;;;;;;;;;5029754;28;20671;-73
2022/07/04 07:36:00;;;;;;;4.90;2.25;;;;;;;;;;5029001;28;20209;-71
2022/07/04 07:38:25;;;;;;;3.70;2.00;;;;;;;;;;5029449;28;20198;-71
2022/07/04 07:40:51;;;;;;;6.87;1.83;;;;;;;;;;5028495;28;20972;-72
2022/07/04 07:43:16;;;;;;;4.40;1.48;;;;;;;;;;5012320;28;20420;-71
2022/07/04 07:45:41;;;;;;;6.65;2.83;;;;;;;;;;5019511;28;20320;-71
2022/07/04 07:48:06;;;;;;;3.90;1.60;;;;;;;;;;5010290;28;20274;-71
2022/07/04 07:50:32;;;;;;;5.27;2.67;;;;;;;;;;5015709;28;20416;-71
2022/07/04 07:52:57;;;;;;;3.50;2.37;;;;;;;;;;5018632;28;20439;-72
2022/07/04 07:55:22;;;;;;;4.15;1.88;;;;;;;;;;5019545;28;20955;-71
2022/07/04 07:57:47;;;;;;;4.47;2.10;;;;;;;;;;5019181;28;20224;-70
2022/07/04 08:00:13;;;;;;;5.10;2.15;;;;;;;;;;5021629;28;20707;-71
2022/07/04 08:05:22;;;;;;;3.13;1.77;;;;;;;;;;5017657;28;20297;-72
2022/07/04 08:07:47;;;;;;;4.07;1.50;;;;;;;;;;5025992;28;20269;-71
2022/07/04 08:10:12;;;;;;;3.80;1.70;;;;;;;;;;5028354;28;20201;-72
2022/07/04 08:12:37;;;;;;;2.67;1.20;;;;;;;;;;5033170;28;20412;-71
2022/07/04 08:15:03;;;;;;;2.70;1.43;;;;;;;;;;5009405;28;20454;-71
2022/07/04 08:17:28;;;;;;;6.20;1.50;;;;;;;;;;5032672;28;20403;-72
2022/07/04 08:19:53;;;;;;;3.20;1.30;;;;;;;;;;5030844;28;20260;-70
2022/07/04 08:22:18;;;;;;;4.28;1.60;;;;;;;;;;5024980;28;20599;-71
2022/07/04 08:24:44;;;;;;;2.75;1.60;;;;;;;;;;5015296;28;20215;-71
2022/07/04 08:27:09;;;;;;;2.85;1.85;;;;;;;;;;5012709;28;20243;-71
2022/07/04 08:29:35;;;;;;;4.03;1.70;;;;;;;;;;5034228;22;20303;-70
2022/07/04 08:32:00;;;;;;;6.43;1.70;;;;;;;;;;5045313;28;20184;-73
2022/07/04 08:34:25;;;;;;;5.70;1.70;;;;;;;;;;5057317;28;20873;-69
2022/07/04 08:36:50;;;;;;;3.13;1.80;;;;;;;;;;5053808;28;20201;-69
2022/07/04 08:39:16;;;;;;;6.20;2.20;;;;;;;;;;5048176;28;20466;-69
2022/07/04 08:41:42;;;;;;;3.78;1.40;;;;;;;;;;5042749;28;20424;-69
2022/07/04 08:44:10;;;;;;;3.05;1.55;;;;;;;;;;5050368;28;20173;-69
2022/07/04 08:46:37;;;;;;;5.00;1.70;;;;;;;;;;5025466;28;20177;-69
2022/07/04 08:49:05;;;;;;;2.88;1.85;;;;;;;;;;5042709;28;20189;-70
2022/07/04 08:51:49;;;;;;;3.35;1.65;;;;;;;;;;5052787;28;20178;-69
2022/07/04 08:59:45;;;;;;;4.20;1.98;;;;;;;;;;5046977;28;20323;-71
2022/07/04 09:02:10;;;;;;;3.63;1.73;;;;;;;;;;5043462;28;20184;-70
2022/07/04 09:04:36;;;;;;;4.00;2.00;;;;;;;;;;5036215;28;20182;-70
2022/07/04 09:07:02;;;;;;;3.60;1.70;;;;;;;;;;5035095;28;20217;-70
2022/07/04 09:09:27;;;;;;;5.28;1.85;;;;;;;;;;5031165;28;20214;-70
2022/07/04 09:11:52;;;;;;;6.30;1.90;;;;;;;;;;5037778;28;20178;-71
2022/07/04 09:14:17;;;;;;;2.07;1.37;;;;;;;;;;5045449;28;20202;-70
2022/07/04 09:16:44;;;;;;;5.27;1.83;;;;;;;;;;5031739;28;20454;-70
2022/07/04 09:19:18;;;;;;;7.18;1.75;;;;;;;;;;5029747;28;20427;-73
2022/07/04 09:21:47;;;;;;;3.03;1.35;;;;;;;;;;5037808;28;20194;-70
2022/07/04 09:24:12;;;;;;;4.75;2.20;;;;;;;;;;5031045;28;20565;-72
2022/07/04 09:26:40;;;;;;;4.00;2.30;;;;;;;;;;5032998;28;20174;-69
2022/07/04 09:29:05;;;;;;;4.97;2.03;;;;;;;;;;5030312;28;20213;-70
2022/07/04 09:31:31;;;;;;;6.20;2.47;;;;;;;;;;5031988;28;20177;-70
2022/07/04 09:34:03;;;;;;;7.90;3.25;;;;;;;;;;5030624;28;21005;-70
2022/07/04 09:36:31;;;;;;;7.45;3.25;;;;;;;;;;5028255;28;20210;-70
2022/07/04 09:39:17;;;;;;;6.13;3.05;;;;;;;;;;5032137;28;20281;-70
2022/07/04 09:42:02;;;;;;;6.07;2.97;;;;;;;;;;5034020;28;20174;-70
2022/07/04 09:44:44;;;;;;;4.68;3.13;;;;;;;;;;5037598;28;20173;-70
2022/07/04 09:47:25;;;;;;;5.28;2.20;;;;;;;;;;5030689;28;20174;-69
2022/07/04 09:50:00;;;;;;;5.78;2.08;;;;;;;;;;5028603;28;20574;-71
2022/07/04 09:52:27;;;;;;;4.32;2.13;;;;;;;;;;5034975;28;20178;-70
2022/07/04 09:54:55;;;;;;;4.85;2.25;;;;;;;;;;5030973;28;20198;-70
2022/07/04 09:57:22;;;;;;;2.85;1.30;;;;;;;;;;5032689;28;20185;-70
2022/07/04 09:59:47;;;;;;;2.03;1.17;;;;;;;;;;5030577;28;21990;-70
2022/07/04 10:02:14;;;;;;;1.93;1.10;;;;;;;;;;5031910;28;20221;-69
2022/07/04 10:04:43;;;;;;;1.20;0.98;;;;;;;;;;5029181;28;20426;-70
2022/07/04 10:07:08;;;;;;;2.35;1.20;;;;;;;;;;5032703;28;20179;-70
2022/07/04 10:09:34;;;;;;;2.13;1.23;;;;;;;;;;5028811;28;20220;-70
2022/07/04 10:11:59;;;;;;;1.80;1.17;;;;;;;;;;5030063;28;20189;-70
2022/07/04 10:14:24;;;;;;;2.17;1.25;;;;;;;;;;5026482;28;20185;-71
2022/07/04 10:16:50;;;;;;;2.67;1.13;;;;;;;;;;5036868;28;20223;-71
2022/07/04 10:19:15;;;;;;;4.30;1.23;;;;;;;;;;5029411;28;20213;-71
2022/07/04 10:21:40;;;;;;;2.67;1.15;;;;;;;;;;5031785;28;20178;-71
2022/07/04 10:24:06;;;;;;;2.75;1.38;;;;;;;;;;5033663;28;20512;-70
2022/07/04 10:26:31;;;;;;;3.08;1.13;;;;;;;;;;5030426;28;20190;-71
2022/07/04 10:28:57;;;;;;;1.27;1.10;;;;;;;;;;5028875;28;20876;-70
2022/07/04 10:31:23;;;;;;;1.45;1.10;;;;;;;;;;5031378;28;20236;-70
2022/07/04 10:33:49;;;;;;;2.15;1.20;;;;;;;;;;5042571;28;20185;-70
2022/07/04 10:36:18;;;;;;;4.55;1.48;;;;;;;;;;5049924;28;20206;-71
2022/07/04 10:38:48;;;;;;;3.30;1.27;;;;;;;;;;5049921;28;20695;-71
2022/07/04 10:41:14;;;;;;;2.17;1.15;;;;;;;;;;5039364;28;20166;-70
2022/07/04 10:43:52;;;;;;;1.65;1.00;;;;;;;;;;5049941;28;20180;-70
2022/07/04 10:46:23;;;;;;;1.38;1.10;;;;;;;;;;5047145;28;20766;-69
2022/07/04 10:48:49;;;;;;;2.88;1.40;;;;;;;;;;5050199;28;20197;-70
2022/07/04 10:51:15;;;;;;;1.77;0.90;;;;;;;;;;5048879;28;20188;-70
2022/07/04 10:53:59;;;;;;;2.60;0.93;;;;;;;;;;5039547;28;20197;-70
2022/07/04 10:56:27;;;;;;;1.20;1.00;;;;;;;;;;5043501;28;20288;-70
2022/07/04 10:58:54;;;;;;;1.52;0.88;;;;;;;;;;5042918;28;20201;-69
2022/07/04 11:01:19;;;;;;;2.80;0.80;;;;;;;;;;5046814;28;20199;-69
2022/07/04 11:03:45;;;;;;;2.28;0.70;;;;;;;;;;5029985;28;20216;-70
2022/07/04 11:06:28;;;;;;;1.42;0.73;;;;;;;;;;5029923;28;20202;-70
2022/07/04 11:09:10;;;;;;;1.63;0.52;;;;;;;;;;5031643;28;20190;-70
2022/07/04 11:11:56;;;;;;;2.65;0.90;;;;;;;;;;5031066;28;20179;-70
2022/07/04 11:14:36;;;;;;;2.33;0.77;;;;;;;;;;5028301;28;20273;-70
2022/07/04 11:17:06;;;;;;;1.63;0.90;;;;;;;;;;5032586;28;20193;-70
2022/07/04 11:19:31;;;;;;;4.57;1.00;;;;;;;;;;5038046;28;20663;-70
2022/07/04 11:21:57;;;;;;;3.47;1.05;;;;;;;;;;5033204;28;20180;-70
2022/07/04 11:24:22;;;;;;;0.82;0.70;;;;;;;;;;5030105;28;20260;-70
2022/07/04 11:26:47;;;;;;;5.05;0.93;;;;;;;;;;5032295;28;20590;-70
2022/07/04 11:29:13;;;;;;;2.67;0.90;;;;;;;;;;5032886;28;20705;-70
2022/07/04 11:31:39;;;;;;;2.05;0.98;;;;;;;;;;5033812;28;20597;-70
2022/07/04 11:34:05;;;;;;;2.15;1.23;;;;;;;;;;5033279;28;20178;-70
2022/07/04 11:36:30;;;;;;;1.70;0.90;;;;;;;;;;5030769;28;20224;-70
2022/07/04 11:38:55;;;;;;;3.73;0.90;;;;;;;;;;5030210;28;20663;-70
2022/07/04 11:47:03;;;;;;;2.03;0.73;;;;;;;;;;5035262;28;20197;-69
2022/07/04 11:49:28;;;;;;;4.03;0.80;;;;;;;;;;5032109;28;20201;-70
2022/07/04 11:51:55;;;;;;;2.42;0.77;;;;;;;;;;5034118;28;20182;-69
2022/07/04 11:54:20;;;;;;;2.35;0.82;;;;;;;;;;5035441;28;20234;-70
2022/07/04 11:56:46;;;;;;;0.95;0.70;;;;;;;;;;5030214;28;20214;-69
2022/07/04 11:59:12;;;;;;;2.75;0.98;;;;;;;;;;5013989;28;20714;-70
2022/07/04 12:01:38;;;;;;;2.83;0.80;;;;;;;;;;5013912;28;20554;-70
2022/07/04 12:04:19;;;;;;;1.55;0.80;;;;;;;;;;5030696;28;20176;-70
2022/07/04 12:06:45;;;;;;;2.55;0.80;;;;;;;;;;5033337;28;20244;-69
2022/07/04 12:09:11;;;;;;;2.28;0.93;;;;;;;;;;5034308;28;20194;-70
2022/07/04 12:11:53;;;;;;;1.25;0.85;;;;;;;;;;5031967;28;20670;-70
2022/07/04 12:14:19;;;;;;;1.98;1.00;;;;;;;;;;5032842;28;20174;-69
2022/07/04 12:16:44;;;;;;;2.72;0.85;;;;;;;;;;5035490;28;20646;-71
2022/07/04 12:19:10;;;;;;;2.20;0.80;;;;;;;;;;5034330;28;20226;-70
2022/07/04 12:21:35;;;;;;;1.17;0.80;;;;;;;;;;5032505;28;20797;-70
2022/07/04 12:24:02;;;;;;;1.30;0.70;;;;;;;;;;5032755;28;20181;-69
2022/07/04 12:26:28;;;;;;;3.35;1.00;;;;;;;;;;5031417;28;20179;-70
2022/07/04 12:28:53;;;;;;;2.78;0.93;;;;;;;;;;5033710;28;20616;-70
2022/07/04 12:31:18;;;;;;;1.88;0.82;;;;;;;;;;5050302;28;20260;-71
2022/07/04 12:33:53;;;;;;;2.17;0.77;;;;;;;;;;5053323;28;20639;-71
2022/07/04 12:36:19;;;;;;;1.70;0.75;;;;;;;;;;5046823;28;20516;-71
2022/07/04 12:38:44;;;;;;;2.60;0.90;;;;;;;;;;5030414;28;21044;-71
2022/07/04 12:41:11;;;;;;;1.58;0.80;;;;;;;;;;5048624;28;21235;-71
2022/07/04 12:43:42;;;;;;;3.08;1.08;;;;;;;;;;5043219;28;20522;-72
2022/07/04 12:46:08;;;;;;;1.65;0.90;;;;;;;;;;5045259;28;20185;-70
2022/07/04 12:48:34;;;;;;;2.67;1.02;;;;;;;;;;5049362;28;20552;-70
2022/07/04 12:51:28;;;;;;;1.02;0.73;;;;;;;;;;5041255;28;20196;-70
2022/07/04 12:53:56;;;;;;;1.75;0.88;;;;;;;;;;5022241;28;20690;-71
2022/07/04 12:56:31;;;;;;;2.72;1.00;;;;;;;;;;5048710;28;20209;-71
2022/07/04 12:58:57;;;;;;;1.33;0.70;;;;;;;;;;5052255;28;20194;-71
2022/07/04 13:01:22;;;;;;;2.78;0.82;;;;;;;;;;5033286;28;20532;-71
2022/07/04 13:03:47;;;;;;;1.53;0.73;;;;;;;;;;5030351;28;20178;-71
2022/07/04 13:06:12;;;;;;;2.85;1.10;;;;;;;;;;5032795;28;20921;-71
2022/07/04 13:08:38;;;;;;;1.67;1.00;;;;;;;;;;5030907;28;20241;-71
2022/07/04 13:13:47;;;;;;;2.75;1.00;;;;;;;;;;5031273;28;20701;-70
2022/07/04 13:16:12;;;;;;;2.00;1.10;;;;;;;;;;5031443;28;20201;-71
2022/07/04 13:18:37;;;;;;;2.80;0.80;;;;;;;;;;5042920;28;20844;-71
2022/07/04 13:21:03;;;;;;;1.85;0.90;;;;;;;;;;5050232;28;20411;-70
2022/07/04 13:23:28;;;;;;;3.27;1.00;;;;;;;;;;5030360;28;20175;-70
2022/07/04 13:25:53;;;;;;;1.05;0.95;;;;;;;;;;5029953;28;20501;-70
2022/07/04 13:28:18;;;;;;;0.90;0.70;;;;;;;;;;5033232;28;20252;-70
2022/07/04 13:30:43;;;;;;;1.03;0.70;;;;;;;;;;5033624;28;20459;-71
2022/07/04 13:33:08;;;;;;;1.60;0.83;;;;;;;;;;5033143;28;20426;-76
2022/07/04 13:35:34;;;;;;;2.70;0.83;;;;;;;;;;5030085;28;20509;-71
2022/07/04 13:37:59;;;;;;;2.43;1.10;;;;;;;;;;5030414;28;20582;-72
2022/07/04 13:40:24;;;;;;;1.90;0.83;;;;;;;;;;5031591;28;20438;-70
2022/07/04 13:42:58;;;;;;;2.77;0.93;;;;;;;;;;5030115;28;20422;-70
2022/07/04 13:45:24;;;;;;;1.73;0.80;;;;;;;;;;5031354;28;21477;-70
2022/07/04 13:47:49;;;;;;;2.03;0.93;;;;;;;;;;5014830;28;20309;-70
2022/07/04 13:50:15;;;;;;;1.25;0.63;;;;;;;;;;5029398;28;20210;-71
2022/07/04 13:52:40;;;;;;;3.70;0.93;;;;;;;;;;5033770;28;20265;-70
2022/07/04 13:55:05;;;;;;;1.20;0.70;;;;;;;;;;5031789;28;20462;-71
2022/07/04 13:57:30;;;;;;;2.83;1.00;;;;;;;;;;5028700;28;20438;-70
2022/07/04 13:59:56;;;;;;;1.88;0.90;;;;;;;;;;5029889;28;20190;-71
2022/07/04 14:02:21;;;;;;;1.93;1.20;;;;;;;;;;5031947;28;20205;-70
2022/07/04 14:04:46;;;;;;;1.63;0.88;;;;;;;;;;5032847;28;20441;-71
2022/07/04 14:07:11;;;;;;;4.07;1.50;;;;;;;;;;5032026;28;20292;-71
2022/07/04 14:09:37;;;;;;;2.05;0.68;;;;;;;;;;5027862;28;20472;-71
2022/07/04 14:12:02;;;;;;;1.57;1.10;;;;;;;;;;5030391;28;20178;-71
2022/07/04 14:14:27;;;;;;;0.93;0.82;;;;;;;;;;5032213;28;20459;-71
2022/07/04 14:16:52;;;;;;;2.97;0.77;;;;;;;;;;5034066;28;20210;-70
2022/07/04 14:19:19;;;;;;;1.30;1.00;;;;;;;;;;5026743;28;21067;-71
2022/07/04 14:21:44;;;;;;;2.47;0.80;;;;;;;;;;5027966;28;20186;-70
2022/07/04 14:24:09;;;;;;;1.50;1.00;;;;;;;;;;5028043;28;20437;-70
2022/07/04 14:26:34;;;;;;;1.57;1.00;;;;;;;;;;5031521;28;20418;-70
2022/07/04 14:29:00;;;;;;;3.20;1.07;;;;;;;;;;5045445;23;20498;-74
2022/07/04 14:31:25;;;;;;;2.58;1.08;;;;;;;;;;5068786;28;20418;-75
2022/07/04 14:33:50;;;;;;;2.00;0.83;;;;;;;;;;5066729;28;20244;-74
2022/07/04 14:36:15;;;;;;;2.27;1.37;;;;;;;;;;5070137;28;20465;-72
2022/07/04 14:38:41;;;;;;;2.83;0.80;;;;;;;;;;5064391;28;20446;-73
2022/07/04 14:41:12;;;;;;;1.27;0.80;;;;;;;;;;5051680;28;20815;-73
2022/07/04 14:43:41;;;;;;;1.45;0.80;;;;;;;;;;5029880;28;20200;-74
2022/07/04 14:46:06;;;;;;;3.25;0.82;;;;;;;;;;5048206;28;20173;-73
2022/07/04 14:48:32;;;;;;;1.83;0.70;;;;;;;;;;5048891;28;20710;-73
2022/07/04 14:50:57;;;;;;;1.58;0.70;;;;;;;;;;5048125;28;20216;-74
2022/07/04 14:53:24;;;;;;;4.70;1.10;;;;;;;;;;5047279;28;20182;-73
2022/07/04 14:55:49;;;;;;;2.03;1.10;;;;;;;;;;5048861;28;20197;-74
2022/07/04 14:58:14;;;;;;;2.30;1.00;;;;;;;;;;5049089;28;20235;-73
2022/07/04 15:00:40;;;;;;;2.58;1.10;;;;;;;;;;5050244;28;20465;-73